CW3109 Weather Reports


time (UTC)temp
F
wind
direction
speed
knots
gust
knots
rain 1hr
in
rain 24hr
in
rain mn
in
humidity
%
barometer
mb
20211025045905 58 250 2.6 5.2 0.21 2.52 2.47 95 1002.4
20211025045404 58 355 0.9 1.7 0.22 2.51 2.46 95 1002.4
20211025044904 58 355 0.0 0.9 0.23 2.49 2.44 95 1002.4
20211025044406 58 355 0.0 0.9 0.23 2.47 2.42 95 1002.4
20211025043905 58 355 0.0 0.0 0.22 2.45 2.40 95 1002.4
20211025043404 58 355 0.0 0.9 0.21 2.42 2.37 95 1002.4
20211025042905 58 355 0.0 1.7 0.22 2.41 2.36 100 1002.3
20211025042404 58 355 0.0 0.9 0.22 2.39 2.34 27 1002.3
20211025041904 58 355 0.0 0.0 0.22 2.37 2.32 95 1002.3
20211025041405 58 355 0.0 0.9 0.22 2.35 2.30 95 1001.9
20211025040904 58 355 0.0 0.9 0.23 2.34 2.29 95 1001.9
20211025040404 58 355 0.0 1.7 0.24 2.32 2.27 95 1001.9
20211025035906 58 355 0.9 1.7 0.25 2.31 2.26 95 1002.0
20211025035404 58 355 0.9 1.7 0.25 2.29 2.24 95 1002.0
20211025034904 58 251 0.9 1.7 0.24 2.26 2.21 95 1002.0
20211025034405 58 251 0.9 1.7 0.24 2.24 2.19 95 1002.3
20211025033904 58 251 0.0 0.9 0.25 2.23 2.18 95 1002.3
20211025033404 58 251 0.0 0.9 0.25 2.21 2.16 95 1002.3
20211025032906 58 251 0.0 2.6 0.24 2.19 2.14 95 1002.1
20211025032403 58 251 0.0 1.7 0.24 2.17 2.12 95 1002.1
20211025031904 58 251 1.7 2.6 0.24 2.17 2.10 95 1002.1
20211025031405 58 251 0.0 1.7 0.24 2.17 2.08 95 1002.4
20211025030904 58 251 0.0 0.9 0.24 2.16 2.06 95 1002.4
20211025030404 58 251 0.9 0.9 0.22 2.14 2.03 95 1002.4
20211025025905 58 251 0.0 0.9 0.23 2.12 2.01 95 1001.9
20211025025404 58 251 0.0 0.9 0.24 2.10 1.99 95 1001.9
20211025024904 58 251 0.0 0.9 0.24 2.08 1.97 95 1001.9
20211025024406 58 251 0.9 0.9 0.24 2.06 1.95 95 1002.2
20211025023904 58 251 0.0 0.9 0.23 2.04 1.93 95 1002.2
20211025023404 58 251 2.6 2.6 0.22 2.02 1.91 95 1002.2
20211025022906 58 268 0.9 1.7 0.22 2.01 1.90 95 1002.2
20211025022404 58 274 2.6 4.3 0.21 1.99 1.88 95 1002.2
20211025021904 59 273 1.7 4.3 0.21 1.97 1.86 95 1002.2
20211025021405 59 268 2.6 4.3 0.20 1.95 1.84 94 1002.1
20211025020903 59 264 1.7 5.2 0.19 1.93 1.82 94 1002.1
20211025020404 59 257 2.6 5.2 0.19 1.92 1.81 94 1002.1
20211025015906 59 288 2.6 4.3 0.19 1.89 1.78 94 1002.0
20211025015404 59 284 2.6 7.8 0.18 1.86 1.75 94 1002.0
20211025014904 59 273 2.6 6.1 0.20 1.84 1.73 94 1002.0
20211025014405 59 289 1.7 4.3 0.22 1.82 1.71 94 1001.8
20211025013904 59 294 1.7 5.2 0.25 1.81 1.70 94 1001.8
20211025013404 59 274 4.3 6.1 0.28 1.80 1.69 94 1001.8
20211025012905 59 274 4.3 7.8 0.34 1.79 1.68 94 1001.9
20211025012403 59 260 5.2 12.2 0.40 1.78 1.67 94 1001.9
20211025011904 60 277 7.8 12.2 0.40 1.76 1.65 94 1001.9
20211025011405 60 255 4.3 11.3 0.40 1.75 1.64 94 1001.6
20211025010904 60 271 5.2 10.4 0.40 1.74 1.63 94 1001.6
20211025010404 60 273 5.2 14.8 0.40 1.73 1.62 94 1001.6
20211025005905 61 265 7.8 14.8 0.39 1.70 1.59 94 1001.8
20211025005404 61 262 6.1 10.4 0.39 1.68 1.57 94 1001.8
20211025004904 61 240 7.8 13.9 0.37 1.64 1.53 93 1001.8
20211025004406 62 233 8.7 13.9 0.34 1.60 1.49 93 1001.3
20211025003904 62 268 6.1 11.3 0.32 1.56 1.45 93 1001.3
20211025003404 62 236 2.6 7.0 0.29 1.52 1.41 93 1001.3
20211025002906 62 268 1.7 4.3 0.24 1.45 1.34 93 1000.6
20211025002404 62 248 1.7 2.6 0.18 1.38 1.27 93 1000.6
20211025001904 62 151 1.7 2.6 0.17 1.36 1.25 93 1000.6
20211025001406 62 186 1.7 4.3 0.18 1.35 1.24 93 1000.7
20211025000904 62 152 2.6 4.3 0.18 1.34 1.23 93 1000.7
20211025000404 62 162 2.6 6.1 0.18 1.33 1.22 93 1000.7
20211024235905 62 182 1.7 4.3 0.17 1.31 1.20 93 1000.6
20211024235404 62 164 3.5 6.1 0.16 1.29 1.18 93 1000.6
20211024234904 62 163 3.5 10.4 0.16 1.27 1.16 93 1000.6
20211024234406 62 172 3.5 7.8 0.17 1.26 1.15 93 1000.2
20211024233904 62 152 2.6 7.8 0.16 1.24 1.13 93 1000.2
20211024233404 62 155 4.3 10.4 0.17 1.23 1.12 92 1000.2
20211024232906 62 141 4.3 10.4 0.18 1.21 1.10 92 1000.3
20211024232404 62 134 4.3 10.4 0.19 1.20 1.09 92 1000.3
20211024231904 62 149 4.3 8.7 0.19 1.19 1.08 92 1000.3
20211024231405 62 135 4.3 11.3 0.18 1.17 1.06 92 1000.3
20211024230905 62 124 6.1 12.2 0.18 1.16 1.05 92 1000.3
20211024230403 62 155 8.7 14.8 0.18 1.15 1.04 92 1000.3
20211024225904 62 153 8.7 18.2 0.18 1.14 1.03 92 1000.2
20211024225403 62 145 4.3 13.0 0.18 1.13 1.02 92 1000.2
20211024224903 62 134 7.0 17.4 0.17 1.11 1.00 92 1000.2
20211024224404 62 154 5.2 13.0 0.16 1.09 0.98 91 1000.3
20211024223904 62 138 8.7 14.8 0.15 1.08 0.97 91 1000.3
20211024223404 62 137 9.6 17.4 0.14 1.06 0.95 91 1000.3
20211024222905 62 129 7.8 19.1 0.12 1.03 0.92 91 1000.4
20211024222405 62 143 9.6 18.2 0.10 1.01 0.90 91 1000.4
20211024221903 62 140 8.7 17.4 0.10 1.00 0.89 91 1000.4
20211024221404 62 134 8.7 19.1 0.09 0.99 0.88 91 1000.4
20211024220905 62 148 10.4 18.2 0.09 0.98 0.87 91 1000.4
20211024220404 62 140 9.6 19.1 0.08 0.97 0.86 91 1000.4
20211024215904 62 142 8.7 17.4 0.08 0.96 0.85 91 1000.3
20211024215405 62 129 9.6 17.4 0.08 0.95 0.84 91 1000.3
20211024214904 62 138 9.6 18.2 0.07 0.94 0.83 91 1000.3
20211024214404 62 142 13.0 20.0 0.07 0.93 0.82 91 1000.4
20211024213905 62 135 7.8 19.1 0.08 0.93 0.82 91 1000.4
20211024213404 62 132 7.8 15.6 0.07 0.92 0.81 91 1000.4
20211024212904 62 124 10.4 22.6 0.07 0.91 0.80 91 1000.9
20211024212406 62 129 7.8 22.6 0.08 0.91 0.80 91 1000.9
20211024211904 62 130 10.4 17.4 0.08 0.90 0.79 91 1000.9
20211024211404 62 142 10.4 20.9 0.09 0.90 0.79 91 1001.3
20211024210905 62 138 10.4 17.4 0.09 0.89 0.78 91 1001.3
20211024210405 62 151 8.7 17.4 0.10 0.89 0.78 91 1001.3
20211024205904 62 150 8.7 14.8 0.09 0.88 0.77 91 1001.4
20211024205405 62 124 8.7 14.8 0.10 0.87 0.76 90 1001.4
20211024204903 62 148 11.3 19.1 0.10 0.87 0.76 90 1001.4
20211024204403 62 151 10.4 18.2 0.10 0.86 0.75 90 1001.6
20211024203906 62 150 7.8 14.8 0.10 0.85 0.74 90 1001.6
20211024203404 62 157 7.8 14.8 0.12 0.85 0.74 90 1001.6
20211024202905 62 152 7.8 17.4 0.11 0.84 0.73 90 1001.9
20211024202405 62 147 7.0 18.2 0.11 0.83 0.72 90 1001.9
20211024201904 62 152 10.4 18.2 0.10 0.82 0.71 90 1001.9
20211024201404 62 154 5.2 12.2 0.10 0.81 0.70 90 1001.9
20211024200905 62 137 8.7 17.4 0.10 0.80 0.69 89 1001.9
20211024200404 62 140 7.8 19.1 0.10 0.79 0.68 89 1001.9
20211024195904 62 133 7.8 15.6 0.11 0.79 0.68 89 1001.9
20211024195405 62 140 9.6 18.2 0.10 0.77 0.66 89 1001.9
20211024194904 62 147 9.6 19.1 0.11 0.77 0.66 89 1001.9
20211024194404 62 142 9.6 21.7 0.11 0.76 0.65 89 1002.1
20211024193906 62 133 8.7 17.4 0.11 0.75 0.64 89 1002.1
20211024193404 62 144 8.7 21.7 0.10 0.73 0.62 89 1002.1
20211024192903 62 148 7.8 18.2 0.11 0.73 0.62 89 1002.4
20211024192406 62 152 8.7 19.1 0.11 0.72 0.61 89 1002.4
20211024191904 62 154 7.8 17.4 0.11 0.72 0.61 89 1002.4
20211024191404 62 133 8.7 20.9 0.10 0.71 0.60 89 1002.3
20211024190905 62 142 10.4 24.3 0.09 0.70 0.59 89 1002.3
20211024190404 62 156 7.8 18.2 0.09 0.69 0.58 89 1002.3
20211024185904 62 137 10.4 18.2 0.08 0.68 0.57 89 1002.4
20211024185406 62 141 10.4 20.0 0.08 0.67 0.56 89 1002.4
20211024184904 62 155 6.1 17.4 0.07 0.66 0.55 88 1002.4
20211024184404 62 135 8.7 17.4 0.07 0.65 0.54 88 1002.5
20211024183905 62 138 11.3 18.2 0.07 0.64 0.53 88 1002.5
20211024183404 62 138 7.8 18.2 0.06 0.63 0.52 88 1002.5
20211024182904 62 153 8.7 18.2 0.05 0.62 0.51 88 1002.5
20211024182406 62 138 10.4 20.9 0.05 0.61 0.50 88 1002.5
20211024181903 62 160 8.7 15.6 0.05 0.61 0.50 88 1002.5
20211024181404 62 167 10.4 19.1 0.05 0.61 0.50 88 1002.5
20211024180905 62 155 10.4 18.2 0.06 0.61 0.50 88 1002.5
20211024180404 62 166 8.7 13.9 0.05 0.60 0.49 89 1002.5
20211024175904 62 161 8.7 17.4 0.05 0.60 0.49 89 1002.9
20211024175405 62 161 10.4 17.4 0.05 0.59 0.48 89 1002.9
20211024174903 62 153 10.4 18.2 0.05 0.59 0.48 90 1002.9
20211024174404 62 155 8.7 17.4 0.04 0.58 0.47 90 1002.9
20211024173906 62 137 7.8 17.4 0.04 0.57 0.46 90 1002.9
20211024173404 62 150 7.8 19.1 0.04 0.57 0.46 90 1002.9
20211024172904 62 138 8.7 17.4 0.04 0.57 0.46 90 1003.1
20211024172406 62 138 7.8 17.4 0.04 0.56 0.45 90 1003.1
20211024171904 62 161 8.7 15.6 0.06 0.56 0.45 90 1003.1
20211024171404 62 154 8.7 17.4 0.07 0.56 0.45 90 1003.3
20211024170906 61 139 7.0 14.8 0.07 0.55 0.44 90 1003.3
20211024170404 61 143 7.8 17.4 0.08 0.55 0.44 90 1003.3
20211024165904 61 165 7.8 15.6 0.09 0.55 0.44 90 1003.3
20211024165406 61 138 9.6 17.4 0.09 0.54 0.43 90 1003.3
20211024164904 61 154 9.6 19.1 0.09 0.54 0.43 90 1003.3
20211024164404 61 140 8.7 13.9 0.10 0.54 0.43 90 1003.4
20211024163905 61 150 8.7 19.1 0.09 0.53 0.42 90 1003.4
20211024163404 61 153 8.7 17.4 0.09 0.53 0.42 90 1003.4
20211024162904 61 137 10.4 17.4 0.09 0.53 0.42 90 1003.5
20211024162405 61 147 7.8 20.0 0.08 0.52 0.41 90 1003.5
20211024161904 61 145 7.8 10.4 0.06 0.50 0.39 90 1003.5
20211024161404 61 140 10.4 15.6 0.05 0.49 0.38 90 1003.3
20211024160906 61 143 10.4 15.6 0.05 0.48 0.37 90 1003.3
20211024160404 61 127 6.1 13.0 0.04 0.47 0.36 90 1003.3
20211024155904 61 152 8.7 13.9 0.03 0.46 0.35 90 1003.5
20211024155406 61 156 7.8 13.0 0.03 0.45 0.34 91 1003.5
20211024154904 61 153 6.1 13.0 0.03 0.45 0.34 91 1003.5
20211024154403 60 144 7.8 13.0 0.03 0.44 0.33 91 1003.4
20211024153905 60 139 7.0 17.4 0.03 0.44 0.33 91 1003.4
20211024153404 60 142 6.1 10.4 0.03 0.44 0.33 91 1003.4
20211024152904 60 114 5.2 12.2 0.04 0.44 0.33 91 1003.3
20211024152406 59 137 3.5 7.8 0.04 0.44 0.33 90 1003.3
20211024151904 59 142 6.1 12.2 0.04 0.44 0.33 90 1003.3
20211024151403 59 130 7.8 13.9 0.04 0.44 0.33 90 1003.4
20211024150906 59 134 7.8 14.8 0.04 0.43 0.32 90 1003.4
20211024150405 59 149 6.1 13.0 0.04 0.43 0.32 90 1003.4
20211024145903 59 147 6.1 10.4 0.05 0.43 0.32 90 1003.1
20211024145405 59 146 7.8 13.9 0.05 0.42 0.31 92 1003.1
20211024144904 59 133 7.0 13.9 0.05 0.42 0.31 90 1003.1
20211024144404 59 129 6.1 14.8 0.04 0.41 0.30 90 1003.2
20211024143905 59 146 7.8 18.2 0.05 0.41 0.30 90 1003.2
20211024143404 60 148 7.0 17.4 0.06 0.41 0.30 90 1003.2
20211024142904 59 127 7.8 11.3 0.06 0.40 0.29 90 1003.4
20211024142406 59 141 6.1 11.3 0.06 0.40 0.29 90 1003.4
20211024141903 59 120 4.3 12.2 0.07 0.40 0.29 89 1003.4
20211024141404 59 109 7.0 15.6 0.07 0.40 0.29 89 1003.7
20211024140905 59 136 7.8 17.4 0.06 0.39 0.28 89 1003.7
20211024140404 59 154 6.1 13.0 0.06 0.39 0.28 89 1003.7
20211024135903 59 140 7.8 13.0 0.05 0.38 0.27 89 1003.8
20211024135406 60 140 6.1 13.0 0.04 0.37 0.26 89 1003.8
20211024134904 60 127 7.0 14.8 0.04 0.37 0.26 89 1003.8
20211024134404 60 130 7.0 17.4 0.04 0.37 0.26 88 1003.7
20211024133906 59 144 7.0 14.8 0.04 0.36 0.25 89 1003.7
20211024133404 59 133 7.8 18.2 0.03 0.35 0.24 89 1003.7
20211024132904 59 134 6.1 13.0 0.02 0.34 0.23 89 1003.5
20211024132406 59 123 9.6 19.1 0.02 0.34 0.23 89 1003.5
20211024131903 59 131 8.7 19.1 0.02 0.33 0.22 89 1003.5
20211024131404 59 130 9.6 15.6 0.02 0.33 0.22 89 1003.8
20211024130906 59 130 7.8 15.6 0.02 0.33 0.22 89 1003.8
20211024130404 59 128 6.1 17.4 0.02 0.33 0.22 89 1003.8
20211024125904 59 128 7.8 15.6 0.02 0.33 0.22 89 1003.9
20211024125406 59 129 7.8 14.8 0.02 0.33 0.22 89 1003.9
20211024124904 59 126 5.2 12.2 0.02 0.33 0.22 89 1003.9
20211024124404 59 131 7.8 14.8 0.02 0.33 0.22 89 1004.3
20211024123906 59 130 7.8 19.1 0.02 0.32 0.21 88 1004.3
20211024123404 59 137 7.8 14.8 0.02 0.32 0.21 88 1004.3
20211024122904 59 127 7.0 20.0 0.02 0.32 0.21 88 1004.3
20211024122406 59 137 9.6 15.6 0.02 0.32 0.21 88 1004.3
20211024121904 59 127 7.8 14.8 0.01 0.31 0.20 88 1004.3
20211024121404 59 142 5.2 15.6 0.01 0.31 0.20 88 1004.3
20211024120906 59 127 9.6 17.4 0.02 0.31 0.20 88 1004.3
20211024120404 59 142 7.0 17.4 0.02 0.31 0.20 88 1004.3
20211024115904 59 135 9.6 17.4 0.02 0.31 0.20 87 1004.4
20211024115406 59 123 7.8 17.4 0.02 0.31 0.20 87 1004.4
20211024114904 59 146 8.7 17.4 0.02 0.31 0.20 87 1004.4
20211024114404 59 133 9.6 18.2 0.02 0.31 0.20 87 1004.4
20211024113905 59 126 10.4 15.6 0.01 0.30 0.19 87 1004.4
20211024113404 59 150 7.8 17.4 0.01 0.30 0.19 87 1004.4
20211024112904 59 133 10.4 18.2 0.01 0.30 0.19 87 1004.5
20211024112405 59 137 8.7 17.4 0.01 0.30 0.19 87 1004.5
20211024111904 59 133 10.4 15.6 0.01 0.30 0.19 88 1004.5
20211024111404 59 141 10.4 17.4 0.01 0.30 0.19 88 1004.5
20211024110905 59 121 7.0 13.0 0.00 0.29 0.18 88 1004.5
20211024110404 59 136 7.8 15.6 0.01 0.29 0.18 88 1004.5
20211024105903 59 144 6.1 13.0 0.01 0.29 0.18 88 1005.0
20211024105405 59 137 6.1 13.9 0.01 0.29 0.18 88 1005.0
20211024104904 59 135 7.0 11.3 0.01 0.29 0.18 88 1005.0
20211024104404 59 125 4.3 10.4 0.01 0.29 0.18 88 1005.4
20211024103905 59 134 5.2 10.4 0.01 0.29 0.18 88 1005.4
20211024103404 59 141 7.0 13.9 0.01 0.29 0.18 88 1005.4
20211024102904 59 152 7.0 13.9 0.02 0.29 0.18 88 1005.5
20211024102406 59 130 8.7 14.8 0.02 0.29 0.18 88 1005.5
20211024101904 59 131 7.0 13.9 0.03 0.29 0.18 88 1005.5
20211024101403 59 133 6.1 13.9 0.04 0.29 0.18 88 1005.6
20211024100906 59 134 4.3 13.9 0.04 0.29 0.18 88 1005.6
20211024100404 59 138 6.1 12.2 0.04 0.28 0.17 88 1005.6
20211024095905 59 127 7.0 12.2 0.05 0.28 0.17 89 1005.9
20211024095404 59 124 6.1 11.3 0.05 0.28 0.17 89 1005.9
20211024094904 59 133 4.3 13.0 0.05 0.28 0.17 89 1005.9
20211024094406 59 126 7.8 13.0 0.06 0.28 0.17 89 1006.1
20211024093905 59 125 7.0 13.0 0.06 0.28 0.17 89 1006.1
20211024093404 59 128 6.1 12.2 0.06 0.28 0.17 88 1006.1
20211024092906 59 132 6.1 12.2 0.05 0.27 0.16 88 1006.6
20211024092404 59 141 7.0 13.0 0.05 0.27 0.16 88 1006.6
20211024091904 59 128 5.2 11.3 0.05 0.26 0.15 88 1006.6
20211024091405 59 134 7.0 12.2 0.04 0.25 0.14 88 1006.9
20211024090904 59 133 5.2 13.9 0.04 0.25 0.14 88 1006.9
20211024090403 59 131 5.2 13.0 0.03 0.24 0.13 88 1006.9
20211024085906 59 129 5.2 13.0 0.02 0.23 0.12 87 1007.0
20211024085404 59 127 5.2 12.2 0.03 0.23 0.12 87 1007.0
20211024084904 59 126 5.2 10.4 0.04 0.23 0.12 87 1007.0
20211024084406 59 143 4.3 8.7 0.05 0.22 0.11 87 1007.0
20211024083904 59 129 6.1 12.2 0.06 0.22 0.11 87 1007.0
20211024083404 59 128 5.2 12.2 0.07 0.22 0.11 87 1007.0
20211024082906 59 130 7.0 11.3 0.07 0.22 0.11 87 1007.2
20211024082405 59 132 5.2 12.2 0.09 0.22 0.11 87 1007.2
20211024081904 59 133 4.3 8.7 0.08 0.21 0.10 86 1007.2
20211024081406 59 116 5.2 10.4 0.09 0.21 0.10 86 1007.4
20211024080904 59 132 3.5 10.4 0.09 0.21 0.10 86 1007.4
20211024080404 59 124 6.1 12.2 0.09 0.21 0.10 85 1007.4
20211024075906 59 124 4.3 11.3 0.10 0.21 0.10 85 1007.8
20211024075403 59 126 7.0 13.0 0.09 0.20 0.09 84 1007.8
20211024074904 59 124 3.5 10.4 0.09 0.19 0.08 83 1007.8
20211024074406 59 135 5.2 13.0 0.08 0.17 0.06 83 1008.1
20211024073904 59 134 5.2 8.7 0.08 0.16 0.05 83 1008.1
20211024073404 59 123 2.6 10.4 0.07 0.15 0.04 81 1008.1
20211024072906 59 131 5.2 10.4 0.07 0.15 0.04 81 1008.1
20211024072403 59 135 3.5 11.3 0.05 0.13 0.02 81 1008.1
20211024071904 59 139 5.2 12.2 0.05 0.13 0.02 81 1008.1
20211024071405 60 137 5.2 12.2 0.04 0.12 0.01 80 1008.2
20211024070904 60 136 6.1 12.2 0.04 0.12 0.01 80 1008.2
20211024070404 60 133 4.3 13.0 0.04 0.12 0.01 80 1008.2
20211024065905 60 127 5.2 12.2 0.03 0.11 0.11 79 1008.2
20211024065404 60 146 7.0 14.8 0.03 0.11 0.11 78 1008.2
20211024064904 60 122 6.1 15.6 0.02 0.10 0.10 77 1008.2
20211024064406 61 138 4.3 13.0 0.01 0.09 0.09 76 1008.5
20211024063903 61 129 6.1 13.0 0.01 0.08 0.08 75 1008.5
20211024063404 61 130 5.2 13.0 0.01 0.08 0.08 75 1008.5
20211024062905 60 144 3.5 10.4 0.01 0.08 0.08 75 1008.7
20211024062404 60 130 7.8 12.2 0.01 0.08 0.08 76 1008.7
20211024061904 60 142 4.3 10.4 0.02 0.08 0.08 76 1008.7
20211024061406 60 133 4.3 10.4 0.02 0.08 0.08 76 1008.7
20211024060904 60 132 7.8 11.3 0.02 0.08 0.08 76 1008.7
20211024060404 60 129 4.3 12.2 0.02 0.08 0.08 77 1008.7
20211024055905 60 123 7.8 11.3 0.02 0.08 0.08 77 1009.0
20211024055404 60 122 6.1 13.0 0.02 0.08 0.08 77 1009.0
20211024054904 60 125 4.3 11.3 0.02 0.08 0.08 77 1009.0
20211024054406 60 125 6.1 10.4 0.02 0.08 0.08 77 1009.1
20211024053904 60 133 5.2 10.4 0.01 0.07 0.07 77 1009.1
20211024053404 60 132 4.3 10.4 0.01 0.07 0.07 77 1009.1
20211024052906 60 132 5.2 10.4 0.01 0.07 0.07 77 1009.2
20211024052404 60 119 3.5 8.7 0.01 0.07 0.07 78 1009.2
20211024051904 60 119 5.2 12.2 0.00 0.06 0.06 78 1009.2
20211024051406 60 123 4.3 10.4 0.00 0.06 0.06 79 1009.2
20211024050904 59 111 3.5 10.4 0.00 0.06 0.06 80 1009.2
20211024050404 59 134 4.3 11.3 0.00 0.06 0.06 81 1009.2